sensor_id;sensor_type;location;lat;lon;timestamp;P1;durP1;ratioP1;P2;durP2;ratioP2
79403;SDS011;68858;48.642;9.142;2023-04-03T00:01:06;4.20;;;3.80;;
79403;SDS011;68858;48.642;9.142;2023-04-03T00:03:32;4.07;;;3.67;;
79403;SDS011;68858;48.642;9.142;2023-04-03T00:05:57;4.97;;;4.13;;
79403;SDS011;68858;48.642;9.142;2023-04-03T00:08:23;6.13;;;4.30;;
79403;SDS011;68858;48.642;9.142;2023-04-03T00:10:49;4.53;;;4.13;;
79403;SDS011;68858;48.642;9.142;2023-04-03T00:13:15;4.27;;;3.70;;
79403;SDS011;68858;48.642;9.142;2023-04-03T00:15:41;4.77;;;3.80;;
79403;SDS011;68858;48.642;9.142;2023-04-03T00:18:07;5.50;;;3.60;;
79403;SDS011;68858;48.642;9.142;2023-04-03T00:20:34;4.10;;;3.70;;
79403;SDS011;68858;48.642;9.142;2023-04-03T00:23:00;4.40;;;3.67;;
79403;SDS011;68858;48.642;9.142;2023-04-03T00:25:26;4.00;;;3.60;;
79403;SDS011;68858;48.642;9.142;2023-04-03T00:27:52;5.77;;;3.47;;
79403;SDS011;68858;48.642;9.142;2023-04-03T00:30:19;5.00;;;4.17;;
79403;SDS011;68858;48.642;9.142;2023-04-03T00:32:47;4.30;;;3.90;;
79403;SDS011;68858;48.642;9.142;2023-04-03T00:35:13;4.40;;;4.00;;
79403;SDS011;68858;48.642;9.142;2023-04-03T00:37:40;3.83;;;3.43;;
79403;SDS011;68858;48.642;9.142;2023-04-03T00:40:07;4.13;;;3.73;;
79403;SDS011;68858;48.642;9.142;2023-04-03T00:42:33;5.07;;;3.80;;
79403;SDS011;68858;48.642;9.142;2023-04-03T00:47:29;5.53;;;3.90;;
79403;SDS011;68858;48.642;9.142;2023-04-03T00:49:55;4.63;;;3.63;;
79403;SDS011;68858;48.642;9.142;2023-04-03T00:52:23;4.50;;;3.77;;
79403;SDS011;68858;48.642;9.142;2023-04-03T00:54:51;3.87;;;3.57;;
79403;SDS011;68858;48.642;9.142;2023-04-03T00:57:17;5.27;;;3.37;;
79403;SDS011;68858;48.642;9.142;2023-04-03T00:59:45;5.07;;;3.57;;
79403;SDS011;68858;48.642;9.142;2023-04-03T01:02:12;5.03;;;4.17;;
79403;SDS011;68858;48.642;9.142;2023-04-03T01:04:39;4.53;;;3.53;;
79403;SDS011;68858;48.642;9.142;2023-04-03T01:07:26;4.37;;;3.57;;
79403;SDS011;68858;48.642;9.142;2023-04-03T01:09:55;4.27;;;3.87;;
79403;SDS011;68858;48.642;9.142;2023-04-03T01:12:26;4.17;;;3.77;;
79403;SDS011;68858;48.642;9.142;2023-04-03T01:14:53;5.70;;;3.73;;
79403;SDS011;68858;48.642;9.142;2023-04-03T01:17:26;5.37;;;4.07;;
79403;SDS011;68858;48.642;9.142;2023-04-03T01:20:36;4.07;;;3.43;;
79403;SDS011;68858;48.642;9.142;2023-04-03T01:23:06;3.87;;;3.57;;
79403;SDS011;68858;48.642;9.142;2023-04-03T01:25:27;4.00;;;3.33;;
79403;SDS011;68858;48.642;9.142;2023-04-03T01:27:53;4.67;;;3.90;;
79403;SDS011;68858;48.642;9.142;2023-04-03T01:30:20;4.03;;;3.63;;
79403;SDS011;68858;48.642;9.142;2023-04-03T01:32:47;3.90;;;3.20;;
79403;SDS011;68858;48.642;9.142;2023-04-03T01:35:13;5.43;;;3.60;;
79403;SDS011;68858;48.642;9.142;2023-04-03T01:37:39;5.23;;;3.80;;
79403;SDS011;68858;48.642;9.142;2023-04-03T01:40:05;5.00;;;3.87;;
79403;SDS011;68858;48.642;9.142;2023-04-03T01:42:31;4.93;;;3.63;;
79403;SDS011;68858;48.642;9.142;2023-04-03T01:44:57;3.93;;;3.50;;
79403;SDS011;68858;48.642;9.142;2023-04-03T01:47:23;4.23;;;3.67;;
79403;SDS011;68858;48.642;9.142;2023-04-03T01:49:49;5.40;;;3.60;;
79403;SDS011;68858;48.642;9.142;2023-04-03T01:52:15;5.00;;;3.83;;
79403;SDS011;68858;48.642;9.142;2023-04-03T01:54:44;4.40;;;3.70;;
79403;SDS011;68858;48.642;9.142;2023-04-03T01:57:10;4.67;;;4.17;;
79403;SDS011;68858;48.642;9.142;2023-04-03T01:59:38;4.17;;;3.77;;
79403;SDS011;68858;48.642;9.142;2023-04-03T02:02:04;6.10;;;3.90;;
79403;SDS011;68858;48.642;9.142;2023-04-03T02:04:30;4.27;;;3.70;;
79403;SDS011;68858;48.642;9.142;2023-04-03T02:06:56;4.97;;;3.73;;
79403;SDS011;68858;48.642;9.142;2023-04-03T02:09:22;4.03;;;3.60;;
79403;SDS011;68858;48.642;9.142;2023-04-03T02:11:48;4.43;;;3.90;;
79403;SDS011;68858;48.642;9.142;2023-04-03T02:14:14;6.27;;;3.90;;
79403;SDS011;68858;48.642;9.142;2023-04-03T02:16:40;4.07;;;3.60;;
79403;SDS011;68858;48.642;9.142;2023-04-03T02:19:06;3.83;;;3.43;;
79403;SDS011;68858;48.642;9.142;2023-04-03T02:21:32;4.03;;;3.60;;
79403;SDS011;68858;48.642;9.142;2023-04-03T02:23:58;4.10;;;3.70;;
79403;SDS011;68858;48.642;9.142;2023-04-03T02:26:24;5.90;;;3.90;;
79403;SDS011;68858;48.642;9.142;2023-04-03T02:28:50;4.03;;;3.60;;
79403;SDS011;68858;48.642;9.142;2023-04-03T02:31:16;4.40;;;3.83;;
79403;SDS011;68858;48.642;9.142;2023-04-03T02:33:42;4.13;;;3.80;;
79403;SDS011;68858;48.642;9.142;2023-04-03T02:36:09;4.00;;;3.53;;
79403;SDS011;68858;48.642;9.142;2023-04-03T02:38:35;4.97;;;3.90;;
79403;SDS011;68858;48.642;9.142;2023-04-03T02:41:04;4.97;;;3.97;;
79403;SDS011;68858;48.642;9.142;2023-04-03T02:43:31;3.70;;;3.40;;
79403;SDS011;68858;48.642;9.142;2023-04-03T02:45:57;4.37;;;3.97;;
79403;SDS011;68858;48.642;9.142;2023-04-03T02:48:23;4.17;;;3.70;;
79403;SDS011;68858;48.642;9.142;2023-04-03T02:50:49;5.60;;;3.97;;
79403;SDS011;68858;48.642;9.142;2023-04-03T02:53:15;4.23;;;3.83;;
79403;SDS011;68858;48.642;9.142;2023-04-03T02:55:41;3.77;;;3.47;;
79403;SDS011;68858;48.642;9.142;2023-04-03T02:58:07;4.37;;;3.40;;
79403;SDS011;68858;48.642;9.142;2023-04-03T03:00:33;4.13;;;3.73;;
79403;SDS011;68858;48.642;9.142;2023-04-03T03:02:59;4.03;;;3.70;;
79403;SDS011;68858;48.642;9.142;2023-04-03T03:05:26;4.27;;;3.87;;
79403;SDS011;68858;48.642;9.142;2023-04-03T03:07:52;4.20;;;3.80;;
79403;SDS011;68858;48.642;9.142;2023-04-03T03:10:18;4.43;;;3.63;;
79403;SDS011;68858;48.642;9.142;2023-04-03T03:12:44;4.03;;;3.63;;
79403;SDS011;68858;48.642;9.142;2023-04-03T03:15:10;4.67;;;3.63;;
79403;SDS011;68858;48.642;9.142;2023-04-03T03:17:36;4.43;;;3.67;;
79403;SDS011;68858;48.642;9.142;2023-04-03T03:20:03;4.30;;;3.90;;
79403;SDS011;68858;48.642;9.142;2023-04-03T03:22:29;3.93;;;3.57;;
79403;SDS011;68858;48.642;9.142;2023-04-03T03:24:55;4.80;;;4.00;;
79403;SDS011;68858;48.642;9.142;2023-04-03T03:27:24;9.63;;;6.53;;
79403;SDS011;68858;48.642;9.142;2023-04-03T03:29:50;8.13;;;7.07;;
79403;SDS011;68858;48.642;9.142;2023-04-03T03:32:16;5.80;;;5.17;;
79403;SDS011;68858;48.642;9.142;2023-04-03T03:34:42;5.40;;;4.07;;
79403;SDS011;68858;48.642;9.142;2023-04-03T03:37:08;4.10;;;3.70;;
79403;SDS011;68858;48.642;9.142;2023-04-03T03:39:34;5.07;;;3.93;;
79403;SDS011;68858;48.642;9.142;2023-04-03T03:42:00;4.37;;;3.57;;
79403;SDS011;68858;48.642;9.142;2023-04-03T03:44:26;4.27;;;3.80;;
79403;SDS011;68858;48.642;9.142;2023-04-03T03:46:53;5.43;;;4.23;;
79403;SDS011;68858;48.642;9.142;2023-04-03T03:49:20;3.90;;;3.60;;
79403;SDS011;68858;48.642;9.142;2023-04-03T03:51:46;5.27;;;4.03;;
79403;SDS011;68858;48.642;9.142;2023-04-03T03:54:12;4.93;;;3.73;;
79403;SDS011;68858;48.642;9.142;2023-04-03T03:56:38;3.30;;;3.00;;
79403;SDS011;68858;48.642;9.142;2023-04-03T03:59:04;5.50;;;3.47;;
79403;SDS011;68858;48.642;9.142;2023-04-03T04:01:31;3.73;;;3.40;;
79403;SDS011;68858;48.642;9.142;2023-04-03T04:03:57;4.27;;;3.77;;
79403;SDS011;68858;48.642;9.142;2023-04-03T04:06:23;4.57;;;3.37;;
79403;SDS011;68858;48.642;9.142;2023-04-03T04:08:49;3.90;;;3.57;;
79403;SDS011;68858;48.642;9.142;2023-04-03T04:11:15;3.77;;;3.37;;
79403;SDS011;68858;48.642;9.142;2023-04-03T04:13:41;4.70;;;3.57;;
79403;SDS011;68858;48.642;9.142;2023-04-03T04:16:07;4.93;;;3.63;;
79403;SDS011;68858;48.642;9.142;2023-04-03T04:18:34;4.23;;;3.60;;
79403;SDS011;68858;48.642;9.142;2023-04-03T04:21:00;3.00;;;2.70;;
79403;SDS011;68858;48.642;9.142;2023-04-03T04:23:26;3.43;;;3.10;;
79403;SDS011;68858;48.642;9.142;2023-04-03T04:25:52;4.87;;;3.60;;
79403;SDS011;68858;48.642;9.142;2023-04-03T04:28:18;3.73;;;3.30;;
79403;SDS011;68858;48.642;9.142;2023-04-03T04:30:44;3.57;;;3.27;;
79403;SDS011;68858;48.642;9.142;2023-04-03T04:33:10;3.83;;;3.43;;
79403;SDS011;68858;48.642;9.142;2023-04-03T04:35:36;3.73;;;3.33;;
79403;SDS011;68858;48.642;9.142;2023-04-03T04:38:02;4.40;;;3.80;;
79403;SDS011;68858;48.642;9.142;2023-04-03T04:40:28;3.80;;;3.47;;
79403;SDS011;68858;48.642;9.142;2023-04-03T04:42:54;4.03;;;3.33;;
79403;SDS011;68858;48.642;9.142;2023-04-03T04:45:20;3.70;;;3.40;;
79403;SDS011;68858;48.642;9.142;2023-04-03T04:47:46;5.57;;;3.53;;
79403;SDS011;68858;48.642;9.142;2023-04-03T04:50:12;4.47;;;3.70;;
79403;SDS011;68858;48.642;9.142;2023-04-03T04:52:38;4.57;;;3.07;;
79403;SDS011;68858;48.642;9.142;2023-04-03T04:55:05;4.73;;;3.77;;
79403;SDS011;68858;48.642;9.142;2023-04-03T04:57:31;4.13;;;3.73;;
79403;SDS011;68858;48.642;9.142;2023-04-03T04:59:57;4.03;;;3.70;;
79403;SDS011;68858;48.642;9.142;2023-04-03T05:02:22;4.47;;;4.03;;
79403;SDS011;68858;48.642;9.142;2023-04-03T05:04:48;5.30;;;3.83;;
79403;SDS011;68858;48.642;9.142;2023-04-03T05:07:19;4.40;;;3.53;;
79403;SDS011;68858;48.642;9.142;2023-04-03T05:09:45;4.87;;;4.10;;
79403;SDS011;68858;48.642;9.142;2023-04-03T05:12:11;4.67;;;3.90;;
79403;SDS011;68858;48.642;9.142;2023-04-03T05:14:37;4.87;;;3.73;;
79403;SDS011;68858;48.642;9.142;2023-04-03T05:17:03;5.60;;;3.60;;
79403;SDS011;68858;48.642;9.142;2023-04-03T05:19:29;3.83;;;3.30;;
79403;SDS011;68858;48.642;9.142;2023-04-03T05:21:55;4.97;;;3.43;;
79403;SDS011;68858;48.642;9.142;2023-04-03T05:24:21;2.60;;;2.40;;
79403;SDS011;68858;48.642;9.142;2023-04-03T05:26:47;3.63;;;3.03;;
79403;SDS011;68858;48.642;9.142;2023-04-03T05:29:13;3.60;;;3.20;;
79403;SDS011;68858;48.642;9.142;2023-04-03T05:31:39;3.90;;;2.90;;
79403;SDS011;68858;48.642;9.142;2023-04-03T05:34:05;3.53;;;3.23;;
79403;SDS011;68858;48.642;9.142;2023-04-03T05:36:31;3.03;;;2.73;;
79403;SDS011;68858;48.642;9.142;2023-04-03T05:38:57;4.47;;;3.20;;
79403;SDS011;68858;48.642;9.142;2023-04-03T05:41:23;3.60;;;3.30;;
79403;SDS011;68858;48.642;9.142;2023-04-03T05:43:49;3.67;;;3.00;;
79403;SDS011;68858;48.642;9.142;2023-04-03T05:46:16;4.53;;;2.93;;
79403;SDS011;68858;48.642;9.142;2023-04-03T05:48:46;3.00;;;2.70;;
79403;SDS011;68858;48.642;9.142;2023-04-03T05:51:13;2.90;;;2.70;;
79403;SDS011;68858;48.642;9.142;2023-04-03T05:53:40;4.60;;;2.90;;
79403;SDS011;68858;48.642;9.142;2023-04-03T05:56:06;3.90;;;2.90;;
79403;SDS011;68858;48.642;9.142;2023-04-03T05:58:32;3.10;;;2.60;;
79403;SDS011;68858;48.642;9.142;2023-04-03T06:00:58;3.17;;;2.80;;
79403;SDS011;68858;48.642;9.142;2023-04-03T06:03:24;4.17;;;2.70;;
79403;SDS011;68858;48.642;9.142;2023-04-03T06:05:51;3.10;;;2.80;;
79403;SDS011;68858;48.642;9.142;2023-04-03T06:08:17;4.73;;;3.00;;
79403;SDS011;68858;48.642;9.142;2023-04-03T06:10:43;3.37;;;2.70;;
79403;SDS011;68858;48.642;9.142;2023-04-03T06:13:09;3.07;;;2.77;;
79403;SDS011;68858;48.642;9.142;2023-04-03T06:15:36;3.70;;;3.20;;
79403;SDS011;68858;48.642;9.142;2023-04-03T06:18:03;2.67;;;2.47;;
79403;SDS011;68858;48.642;9.142;2023-04-03T06:20:28;2.93;;;2.67;;
79403;SDS011;68858;48.642;9.142;2023-04-03T06:22:56;3.33;;;2.63;;
79403;SDS011;68858;48.642;9.142;2023-04-03T06:25:22;3.27;;;2.83;;
79403;SDS011;68858;48.642;9.142;2023-04-03T06:27:48;4.43;;;2.60;;
79403;SDS011;68858;48.642;9.142;2023-04-03T06:30:14;3.20;;;2.37;;
79403;SDS011;68858;48.642;9.142;2023-04-03T06:32:40;3.33;;;2.60;;
79403;SDS011;68858;48.642;9.142;2023-04-03T06:35:06;3.27;;;2.70;;
79403;SDS011;68858;48.642;9.142;2023-04-03T06:37:32;2.70;;;2.50;;
79403;SDS011;68858;48.642;9.142;2023-04-03T06:39:58;2.60;;;2.27;;
79403;SDS011;68858;48.642;9.142;2023-04-03T06:42:25;3.57;;;2.90;;
79403;SDS011;68858;48.642;9.142;2023-04-03T06:44:51;5.27;;;2.73;;
79403;SDS011;68858;48.642;9.142;2023-04-03T06:47:17;3.20;;;2.90;;
79403;SDS011;68858;48.642;9.142;2023-04-03T06:49:43;3.60;;;3.00;;
79403;SDS011;68858;48.642;9.142;2023-04-03T06:52:10;3.47;;;2.90;;
79403;SDS011;68858;48.642;9.142;2023-04-03T06:54:37;4.60;;;3.00;;
79403;SDS011;68858;48.642;9.142;2023-04-03T06:57:03;2.80;;;2.60;;
79403;SDS011;68858;48.642;9.142;2023-04-03T06:59:29;3.67;;;2.90;;
79403;SDS011;68858;48.642;9.142;2023-04-03T07:01:55;3.43;;;2.80;;
79403;SDS011;68858;48.642;9.142;2023-04-03T07:04:21;3.27;;;2.67;;
79403;SDS011;68858;48.642;9.142;2023-04-03T07:06:47;3.17;;;2.80;;
79403;SDS011;68858;48.642;9.142;2023-04-03T07:09:13;3.10;;;2.40;;
79403;SDS011;68858;48.642;9.142;2023-04-03T07:11:40;3.70;;;2.80;;
79403;SDS011;68858;48.642;9.142;2023-04-03T07:14:06;4.30;;;2.80;;
79403;SDS011;68858;48.642;9.142;2023-04-03T07:16:33;3.30;;;2.73;;
79403;SDS011;68858;48.642;9.142;2023-04-03T07:18:59;3.47;;;2.97;;
79403;SDS011;68858;48.642;9.142;2023-04-03T07:21:25;3.60;;;2.70;;
79403;SDS011;68858;48.642;9.142;2023-04-03T07:23:52;3.63;;;2.60;;
79403;SDS011;68858;48.642;9.142;2023-04-03T07:26:18;2.90;;;2.60;;
79403;SDS011;68858;48.642;9.142;2023-04-03T07:28:45;3.07;;;2.77;;
79403;SDS011;68858;48.642;9.142;2023-04-03T07:31:13;3.00;;;2.70;;
79403;SDS011;68858;48.642;9.142;2023-04-03T07:33:40;3.30;;;2.80;;
79403;SDS011;68858;48.642;9.142;2023-04-03T07:36:07;3.67;;;2.63;;
79403;SDS011;68858;48.642;9.142;2023-04-03T07:38:33;2.67;;;2.47;;
79403;SDS011;68858;48.642;9.142;2023-04-03T07:41:00;2.60;;;2.40;;
79403;SDS011;68858;48.642;9.142;2023-04-03T07:43:27;5.83;;;2.57;;
79403;SDS011;68858;48.642;9.142;2023-04-03T07:45:53;3.77;;;2.63;;
79403;SDS011;68858;48.642;9.142;2023-04-03T07:48:23;3.70;;;2.40;;
79403;SDS011;68858;48.642;9.142;2023-04-03T07:50:50;2.83;;;2.40;;
79403;SDS011;68858;48.642;9.142;2023-04-03T07:53:16;3.43;;;2.70;;
79403;SDS011;68858;48.642;9.142;2023-04-03T07:55:42;2.67;;;2.33;;
79403;SDS011;68858;48.642;9.142;2023-04-03T07:58:09;2.67;;;2.40;;
79403;SDS011;68858;48.642;9.142;2023-04-03T08:00:35;5.43;;;2.40;;
79403;SDS011;68858;48.642;9.142;2023-04-03T08:03:01;3.10;;;2.23;;
79403;SDS011;68858;48.642;9.142;2023-04-03T08:05:27;4.03;;;2.50;;
79403;SDS011;68858;48.642;9.142;2023-04-03T08:07:53;6.13;;;3.10;;
79403;SDS011;68858;48.642;9.142;2023-04-03T08:10:19;3.10;;;2.30;;
79403;SDS011;68858;48.642;9.142;2023-04-03T08:12:46;3.17;;;2.80;;
79403;SDS011;68858;48.642;9.142;2023-04-03T08:15:12;3.43;;;2.40;;
79403;SDS011;68858;48.642;9.142;2023-04-03T08:17:38;3.17;;;2.93;;
79403;SDS011;68858;48.642;9.142;2023-04-03T08:20:04;3.17;;;2.83;;
79403;SDS011;68858;48.642;9.142;2023-04-03T08:22:32;3.50;;;2.50;;
79403;SDS011;68858;48.642;9.142;2023-04-03T08:24:58;4.33;;;2.60;;
79403;SDS011;68858;48.642;9.142;2023-04-03T08:27:25;3.17;;;2.47;;
79403;SDS011;68858;48.642;9.142;2023-04-03T08:29:52;4.03;;;2.70;;
79403;SDS011;68858;48.642;9.142;2023-04-03T08:32:17;2.87;;;2.57;;
79403;SDS011;68858;48.642;9.142;2023-04-03T08:34:44;4.13;;;2.70;;
79403;SDS011;68858;48.642;9.142;2023-04-03T08:37:11;3.40;;;3.00;;
79403;SDS011;68858;48.642;9.142;2023-04-03T08:39:37;4.37;;;3.00;;
79403;SDS011;68858;48.642;9.142;2023-04-03T08:42:05;3.07;;;2.63;;
79403;SDS011;68858;48.642;9.142;2023-04-03T08:44:44;5.00;;;2.97;;
79403;SDS011;68858;48.642;9.142;2023-04-03T08:47:21;2.80;;;2.17;;
79403;SDS011;68858;48.642;9.142;2023-04-03T08:49:57;4.57;;;2.87;;
79403;SDS011;68858;48.642;9.142;2023-04-03T08:55:03;3.00;;;2.37;;
79403;SDS011;68858;48.642;9.142;2023-04-03T08:57:34;4.50;;;2.50;;
79403;SDS011;68858;48.642;9.142;2023-04-03T09:00:23;3.10;;;2.37;;
79403;SDS011;68858;48.642;9.142;2023-04-03T09:02:48;3.90;;;2.97;;
79403;SDS011;68858;48.642;9.142;2023-04-03T09:05:18;4.33;;;2.73;;
79403;SDS011;68858;48.642;9.142;2023-04-03T09:07:46;3.90;;;2.87;;
79403;SDS011;68858;48.642;9.142;2023-04-03T09:10:13;6.33;;;2.93;;
79403;SDS011;68858;48.642;9.142;2023-04-03T09:12:40;3.70;;;2.90;;
79403;SDS011;68858;48.642;9.142;2023-04-03T09:15:23;3.50;;;2.60;;
79403;SDS011;68858;48.642;9.142;2023-04-03T09:18:02;3.40;;;2.60;;
79403;SDS011;68858;48.642;9.142;2023-04-03T09:22:55;4.67;;;2.70;;
79403;SDS011;68858;48.642;9.142;2023-04-03T09:25:25;3.30;;;2.40;;
79403;SDS011;68858;48.642;9.142;2023-04-03T09:27:52;2.70;;;2.37;;
79403;SDS011;68858;48.642;9.142;2023-04-03T09:30:22;4.00;;;2.60;;
79403;SDS011;68858;48.642;9.142;2023-04-03T09:32:50;6.47;;;2.90;;
79403;SDS011;68858;48.642;9.142;2023-04-03T09:37:44;5.97;;;2.60;;
79403;SDS011;68858;48.642;9.142;2023-04-03T09:40:30;4.40;;;2.60;;
79403;SDS011;68858;48.642;9.142;2023-04-03T09:43:00;3.13;;;2.30;;
79403;SDS011;68858;48.642;9.142;2023-04-03T09:45:27;3.90;;;2.60;;
79403;SDS011;68858;48.642;9.142;2023-04-03T09:48:16;2.73;;;2.53;;
79403;SDS011;68858;48.642;9.142;2023-04-03T09:50:59;3.53;;;2.73;;
79403;SDS011;68858;48.642;9.142;2023-04-03T09:56:18;4.03;;;2.60;;
79403;SDS011;68858;48.642;9.142;2023-04-03T09:58:47;3.90;;;3.17;;
79403;SDS011;68858;48.642;9.142;2023-04-03T10:01:25;4.37;;;2.70;;
79403;SDS011;68858;48.642;9.142;2023-04-03T10:06:33;2.83;;;2.30;;
79403;SDS011;68858;48.642;9.142;2023-04-03T10:09:10;2.70;;;2.13;;
79403;SDS011;68858;48.642;9.142;2023-04-03T10:11:56;3.43;;;2.80;;
79403;SDS011;68858;48.642;9.142;2023-04-03T10:14:22;2.30;;;2.10;;
79403;SDS011;68858;48.642;9.142;2023-04-03T10:16:52;2.80;;;2.00;;
79403;SDS011;68858;48.642;9.142;2023-04-03T10:22:09;2.50;;;2.00;;
79403;SDS011;68858;48.642;9.142;2023-04-03T10:24:52;3.70;;;2.23;;
79403;SDS011;68858;48.642;9.142;2023-04-03T10:29:55;3.63;;;2.20;;
79403;SDS011;68858;48.642;9.142;2023-04-03T10:35:06;6.07;;;3.10;;
79403;SDS011;68858;48.642;9.142;2023-04-03T10:37:48;2.00;;;1.80;;
79403;SDS011;68858;48.642;9.142;2023-04-03T10:40:33;2.23;;;1.93;;
79403;SDS011;68858;48.642;9.142;2023-04-03T10:43:18;5.13;;;2.93;;
79403;SDS011;68858;48.642;9.142;2023-04-03T11:01:28;4.63;;;2.10;;
79403;SDS011;68858;48.642;9.142;2023-04-03T11:03:59;2.90;;;2.07;;
79403;SDS011;68858;48.642;9.142;2023-04-03T11:06:31;3.03;;;2.30;;
79403;SDS011;68858;48.642;9.142;2023-04-03T11:09:03;2.80;;;2.60;;
79403;SDS011;68858;48.642;9.142;2023-04-03T11:11:35;3.80;;;2.60;;
79403;SDS011;68858;48.642;9.142;2023-04-03T11:16:30;2.73;;;2.13;;
79403;SDS011;68858;48.642;9.142;2023-04-03T11:21:31;3.63;;;2.10;;
79403;SDS011;68858;48.642;9.142;2023-04-03T11:23:59;3.83;;;2.43;;
79403;SDS011;68858;48.642;9.142;2023-04-03T11:26:29;3.30;;;2.10;;
79403;SDS011;68858;48.642;9.142;2023-04-03T11:29:01;3.67;;;2.60;;
79403;SDS011;68858;48.642;9.142;2023-04-03T11:36:33;3.33;;;2.30;;
79403;SDS011;68858;48.642;9.142;2023-04-03T11:39:08;4.70;;;2.30;;
79403;SDS011;68858;48.642;9.142;2023-04-03T11:41:35;2.73;;;1.93;;
79403;SDS011;68858;48.642;9.142;2023-04-03T11:44:06;2.80;;;2.20;;
79403;SDS011;68858;48.642;9.142;2023-04-03T11:46:57;2.93;;;2.07;;
79403;SDS011;68858;48.642;9.142;2023-04-03T11:52:10;5.57;;;4.20;;
79403;SDS011;68858;48.642;9.142;2023-04-03T11:59:50;5.27;;;4.47;;
79403;SDS011;68858;48.642;9.142;2023-04-03T12:02:37;6.03;;;3.77;;
79403;SDS011;68858;48.642;9.142;2023-04-03T12:10:32;4.33;;;2.90;;
79403;SDS011;68858;48.642;9.142;2023-04-03T12:12:58;3.90;;;2.10;;
79403;SDS011;68858;48.642;9.142;2023-04-03T12:23:28;3.27;;;1.80;;
79403;SDS011;68858;48.642;9.142;2023-04-03T12:25:59;5.67;;;3.73;;
79403;SDS011;68858;48.642;9.142;2023-04-03T12:28:26;2.73;;;2.30;;
79403;SDS011;68858;48.642;9.142;2023-04-03T12:30:53;3.67;;;2.87;;
79403;SDS011;68858;48.642;9.142;2023-04-03T12:35:57;2.97;;;2.43;;
79403;SDS011;68858;48.642;9.142;2023-04-03T12:43:43;5.40;;;2.93;;
79403;SDS011;68858;48.642;9.142;2023-04-03T12:46:13;3.67;;;2.43;;
79403;SDS011;68858;48.642;9.142;2023-04-03T12:51:13;7.27;;;4.77;;
79403;SDS011;68858;48.642;9.142;2023-04-03T12:53:40;10.27;;;6.63;;
79403;SDS011;68858;48.642;9.142;2023-04-03T12:58:49;4.00;;;2.50;;
79403;SDS011;68858;48.642;9.142;2023-04-03T13:01:16;2.80;;;2.20;;
79403;SDS011;68858;48.642;9.142;2023-04-03T13:03:48;2.70;;;2.13;;
79403;SDS011;68858;48.642;9.142;2023-04-03T13:06:38;2.20;;;2.00;;
79403;SDS011;68858;48.642;9.142;2023-04-03T13:09:01;2.97;;;2.10;;
79403;SDS011;68858;48.642;9.142;2023-04-03T13:11:27;2.37;;;2.07;;
79403;SDS011;68858;48.642;9.142;2023-04-03T13:16:25;2.53;;;2.10;;
79403;SDS011;68858;48.642;9.142;2023-04-03T13:18:54;3.13;;;1.83;;
79403;SDS011;68858;48.642;9.142;2023-04-03T13:21:22;2.83;;;1.80;;
79403;SDS011;68858;48.642;9.142;2023-04-03T13:23:50;3.23;;;2.03;;
79403;SDS011;68858;48.642;9.142;2023-04-03T13:26:17;3.07;;;1.80;;
79403;SDS011;68858;48.642;9.142;2023-04-03T13:28:44;4.17;;;2.10;;
79403;SDS011;68858;48.642;9.142;2023-04-03T13:34:26;2.73;;;2.23;;
79403;SDS011;68858;48.642;9.142;2023-04-03T13:36:30;2.83;;;1.87;;
79403;SDS011;68858;48.642;9.142;2023-04-03T13:41:32;3.60;;;2.10;;
79403;SDS011;68858;48.642;9.142;2023-04-03T13:44:16;2.50;;;2.00;;
79403;SDS011;68858;48.642;9.142;2023-04-03T13:46:42;3.27;;;1.90;;
79403;SDS011;68858;48.642;9.142;2023-04-03T13:49:21;2.20;;;2.00;;
79403;SDS011;68858;48.642;9.142;2023-04-03T13:51:50;2.90;;;1.93;;
79403;SDS011;68858;48.642;9.142;2023-04-03T13:54:18;3.57;;;1.87;;
79403;SDS011;68858;48.642;9.142;2023-04-03T13:56:46;3.30;;;2.30;;
79403;SDS011;68858;48.642;9.142;2023-04-03T14:04:26;5.87;;;4.53;;
79403;SDS011;68858;48.642;9.142;2023-04-03T14:06:53;3.83;;;2.90;;
79403;SDS011;68858;48.642;9.142;2023-04-03T14:09:19;2.23;;;1.90;;
79403;SDS011;68858;48.642;9.142;2023-04-03T14:11:47;3.30;;;2.17;;
79403;SDS011;68858;48.642;9.142;2023-04-03T14:14:15;2.63;;;2.20;;
79403;SDS011;68858;48.642;9.142;2023-04-03T14:16:43;2.50;;;1.80;;
79403;SDS011;68858;48.642;9.142;2023-04-03T14:19:14;2.13;;;1.90;;
79403;SDS011;68858;48.642;9.142;2023-04-03T14:21:42;4.03;;;2.03;;
79403;SDS011;68858;48.642;9.142;2023-04-03T14:24:08;2.30;;;2.10;;
79403;SDS011;68858;48.642;9.142;2023-04-03T14:26:34;3.13;;;2.00;;
79403;SDS011;68858;48.642;9.142;2023-04-03T14:29:00;3.93;;;2.40;;
79403;SDS011;68858;48.642;9.142;2023-04-03T14:31:26;3.73;;;1.90;;
79403;SDS011;68858;48.642;9.142;2023-04-03T14:33:52;2.60;;;2.30;;
79403;SDS011;68858;48.642;9.142;2023-04-03T14:36:23;3.67;;;2.47;;
79403;SDS011;68858;48.642;9.142;2023-04-03T14:38:50;4.23;;;2.23;;
79403;SDS011;68858;48.642;9.142;2023-04-03T14:41:17;3.73;;;2.83;;
79403;SDS011;68858;48.642;9.142;2023-04-03T14:43:44;2.70;;;2.37;;
79403;SDS011;68858;48.642;9.142;2023-04-03T14:46:14;3.33;;;2.80;;
79403;SDS011;68858;48.642;9.142;2023-04-03T14:48:41;3.57;;;2.30;;
79403;SDS011;68858;48.642;9.142;2023-04-03T14:51:08;3.67;;;2.90;;
79403;SDS011;68858;48.642;9.142;2023-04-03T14:53:35;2.47;;;2.13;;
79403;SDS011;68858;48.642;9.142;2023-04-03T14:56:01;3.10;;;2.00;;
79403;SDS011;68858;48.642;9.142;2023-04-03T14:58:27;2.47;;;2.20;;
79403;SDS011;68858;48.642;9.142;2023-04-03T15:00:54;2.70;;;2.20;;
79403;SDS011;68858;48.642;9.142;2023-04-03T15:03:20;2.40;;;2.20;;
79403;SDS011;68858;48.642;9.142;2023-04-03T15:05:47;2.77;;;1.87;;
79403;SDS011;68858;48.642;9.142;2023-04-03T15:08:32;9.37;;;7.40;;
79403;SDS011;68858;48.642;9.142;2023-04-03T15:10:58;3.63;;;3.00;;
79403;SDS011;68858;48.642;9.142;2023-04-03T15:13:24;6.30;;;1.90;;
79403;SDS011;68858;48.642;9.142;2023-04-03T15:15:50;4.47;;;4.07;;
79403;SDS011;68858;48.642;9.142;2023-04-03T15:18:22;3.07;;;2.77;;
79403;SDS011;68858;48.642;9.142;2023-04-03T15:20:48;4.43;;;2.20;;
79403;SDS011;68858;48.642;9.142;2023-04-03T15:23:15;3.60;;;2.43;;
79403;SDS011;68858;48.642;9.142;2023-04-03T15:25:45;4.80;;;2.70;;
79403;SDS011;68858;48.642;9.142;2023-04-03T15:28:18;4.10;;;2.80;;
79403;SDS011;68858;48.642;9.142;2023-04-03T15:30:45;3.70;;;2.90;;
79403;SDS011;68858;48.642;9.142;2023-04-03T15:33:11;2.83;;;2.60;;
79403;SDS011;68858;48.642;9.142;2023-04-03T15:35:37;2.77;;;2.10;;
79403;SDS011;68858;48.642;9.142;2023-04-03T15:38:03;3.10;;;2.40;;
79403;SDS011;68858;48.642;9.142;2023-04-03T15:40:29;5.43;;;3.57;;
79403;SDS011;68858;48.642;9.142;2023-04-03T15:42:55;6.47;;;5.27;;
79403;SDS011;68858;48.642;9.142;2023-04-03T15:45:21;7.37;;;5.33;;
79403;SDS011;68858;48.642;9.142;2023-04-03T15:47:47;6.47;;;4.20;;
79403;SDS011;68858;48.642;9.142;2023-04-03T15:50:13;8.60;;;6.53;;
79403;SDS011;68858;48.642;9.142;2023-04-03T15:52:39;3.73;;;3.40;;
79403;SDS011;68858;48.642;9.142;2023-04-03T15:55:05;8.43;;;6.13;;
79403;SDS011;68858;48.642;9.142;2023-04-03T15:57:31;3.97;;;2.80;;
79403;SDS011;68858;48.642;9.142;2023-04-03T15:59:57;8.53;;;4.70;;
79403;SDS011;68858;48.642;9.142;2023-04-03T16:02:23;3.50;;;2.40;;
79403;SDS011;68858;48.642;9.142;2023-04-03T16:04:54;9.13;;;5.40;;
79403;SDS011;68858;48.642;9.142;2023-04-03T16:07:20;5.93;;;4.57;;
79403;SDS011;68858;48.642;9.142;2023-04-03T16:09:46;4.90;;;3.90;;
79403;SDS011;68858;48.642;9.142;2023-04-03T16:12:12;3.97;;;3.50;;
79403;SDS011;68858;48.642;9.142;2023-04-03T16:14:39;3.67;;;3.37;;
79403;SDS011;68858;48.642;9.142;2023-04-03T16:17:05;3.00;;;2.30;;
79403;SDS011;68858;48.642;9.142;2023-04-03T16:19:31;3.07;;;2.33;;
79403;SDS011;68858;48.642;9.142;2023-04-03T16:21:57;2.90;;;2.27;;
79403;SDS011;68858;48.642;9.142;2023-04-03T16:24:23;3.80;;;2.40;;
79403;SDS011;68858;48.642;9.142;2023-04-03T16:26:48;2.93;;;2.60;;
79403;SDS011;68858;48.642;9.142;2023-04-03T16:29:15;3.13;;;2.20;;